createdAt,value
2019-05-25T00:01:49.012Z,2.76
2019-05-25T00:06:55.360Z,2.72
2019-05-25T00:12:01.569Z,2.70
2019-05-25T00:17:07.729Z,2.89
2019-05-25T00:22:13.900Z,3.18
2019-05-25T00:27:20.065Z,3.71
2019-05-25T00:32:26.232Z,3.43
2019-05-25T00:37:32.456Z,3.51
2019-05-25T00:42:39.155Z,3.44
2019-05-25T00:47:45.545Z,3.77
2019-05-25T00:52:51.956Z,3.82
2019-05-25T00:57:58.145Z,4.53
2019-05-25T01:03:04.725Z,4.14
2019-05-25T01:08:10.949Z,3.87
2019-05-25T01:13:17.134Z,4.35
2019-05-25T01:18:23.318Z,4.34
2019-05-25T01:23:29.529Z,3.83
2019-05-25T01:28:37.871Z,4.05
2019-05-25T01:33:44.500Z,4.00
2019-05-25T01:38:50.681Z,3.74
2019-05-25T01:43:56.965Z,4.32
2019-05-25T01:49:03.138Z,4.20
2019-05-25T01:54:09.325Z,3.86
2019-05-25T01:59:15.488Z,3.71
2019-05-25T02:04:21.685Z,3.63
2019-05-25T02:09:27.908Z,3.78
2019-05-25T02:14:34.031Z,4.14
2019-05-25T02:19:40.163Z,4.14
2019-05-25T02:24:46.357Z,4.23
2019-05-25T02:29:52.480Z,4.30
2019-05-25T02:34:58.679Z,4.23
2019-05-25T02:40:04.877Z,4.38
2019-05-25T02:45:11.264Z,4.70
2019-05-25T02:50:17.811Z,4.65
2019-05-25T02:55:33.927Z,4.44
2019-05-25T03:00:30.441Z,4.40
2019-05-25T03:05:36.666Z,4.32
2019-05-25T03:10:43.104Z,4.25
2019-05-25T03:15:49.412Z,4.61
2019-05-25T03:20:55.896Z,4.46
2019-05-25T03:26:02.026Z,4.91
2019-05-25T03:31:08.224Z,4.95
2019-05-25T03:36:14.549Z,5.60
2019-05-25T03:41:20.971Z,5.38
2019-05-25T03:46:27.325Z,5.55
2019-05-25T03:51:33.452Z,5.30
2019-05-25T03:56:39.792Z,5.02
2019-05-25T04:01:46.462Z,4.72
2019-05-25T04:07:00.143Z,4.82
2019-05-25T04:11:59.967Z,5.13
2019-05-25T04:17:06.157Z,4.61
2019-05-25T04:22:12.574Z,5.11
2019-05-25T04:27:19.019Z,4.83
2019-05-25T04:32:25.472Z,5.38
2019-05-25T04:37:32.015Z,5.45
2019-05-25T04:42:38.521Z,5.27
2019-05-25T04:47:49.689Z,4.74
2019-05-25T04:52:46.055Z,4.66
2019-05-25T04:57:52.543Z,4.61
2019-05-25T05:02:59.065Z,4.51
2019-05-25T05:08:05.660Z,4.86
2019-05-25T05:13:12.048Z,4.13
2019-05-25T05:18:18.483Z,4.09
2019-05-25T05:23:25.052Z,4.11
2019-05-25T05:28:31.597Z,4.02
2019-05-25T05:33:37.863Z,4.56
2019-05-25T05:38:44.570Z,4.10
2019-05-25T05:43:51.057Z,4.36
2019-05-25T05:48:57.539Z,4.19
2019-05-25T05:54:03.909Z,4.29
2019-05-25T05:59:10.298Z,4.55
2019-05-25T06:04:16.810Z,4.15
2019-05-25T06:09:23.376Z,4.26
2019-05-25T06:14:29.949Z,4.59
2019-05-25T06:19:36.530Z,4.66
2019-05-25T06:24:43.078Z,4.75
2019-05-25T06:29:49.545Z,4.56
2019-05-25T06:34:56.089Z,5.49
2019-05-25T06:40:02.527Z,4.55
2019-05-25T06:45:09.228Z,4.36
2019-05-25T06:50:15.676Z,4.21
2019-05-25T06:55:23.435Z,4.40
2019-05-25T07:00:29.839Z,4.20
2019-05-25T07:05:36.539Z,3.98
2019-05-25T07:10:43.070Z,3.79
2019-05-25T07:15:49.515Z,3.57
2019-05-25T07:20:55.998Z,3.24
2019-05-25T07:26:02.426Z,3.25
2019-05-25T07:31:08.851Z,3.07
2019-05-25T07:36:15.310Z,3.28
2019-05-25T07:41:21.744Z,2.52
2019-05-25T07:46:28.233Z,2.14
2019-05-25T07:51:34.715Z,2.23
2019-05-25T07:56:41.143Z,2.30
2019-05-25T08:01:48.424Z,2.09
2019-05-25T08:06:54.890Z,1.99
2019-05-25T08:12:01.422Z,2.18
2019-05-25T08:17:07.898Z,2.03
2019-05-25T08:22:14.552Z,2.10
2019-05-25T08:27:21.155Z,1.92
2019-05-25T08:32:28.016Z,2.27
2019-05-25T08:37:34.562Z,2.14
2019-05-25T08:42:41.248Z,2.23
2019-05-25T08:47:47.790Z,2.27
2019-05-25T08:52:54.446Z,2.52
2019-05-25T08:58:01.008Z,2.19
2019-05-25T09:03:07.551Z,2.73
2019-05-25T09:08:14.967Z,2.78
2019-05-25T09:13:22.131Z,2.22
2019-05-25T09:18:29.225Z,2.02
2019-05-25T09:23:35.607Z,2.43
2019-05-25T09:28:41.948Z,2.92
2019-05-25T09:33:48.215Z,1.89
2019-05-25T09:38:54.584Z,2.38
2019-05-25T09:44:00.757Z,2.13
2019-05-25T09:49:06.960Z,1.84
2019-05-25T09:54:13.176Z,2.74
2019-05-25T09:59:20.590Z,7.91
2019-05-25T10:04:26.860Z,1.43
2019-05-25T10:09:33.140Z,1.78
2019-05-25T10:14:39.858Z,1.47
2019-05-25T10:19:46.065Z,2.32
2019-05-25T10:24:52.626Z,1.71
2019-05-25T10:29:59.278Z,1.76
2019-05-25T10:35:05.611Z,1.87
2019-05-25T10:40:11.986Z,1.97
2019-05-25T10:45:18.597Z,1.85
2019-05-25T10:50:25.074Z,1.88
2019-05-25T10:55:31.504Z,2.08
2019-05-25T11:00:37.839Z,2.14
2019-05-25T11:05:44.051Z,3.17
2019-05-25T11:10:50.254Z,3.11
2019-05-25T11:15:56.674Z,2.33
2019-05-25T11:21:03.100Z,2.50
2019-05-25T11:26:09.460Z,2.37
2019-05-25T11:31:16.240Z,2.35
2019-05-25T11:36:22.694Z,2.89
2019-05-25T11:41:29.134Z,2.62
2019-05-25T11:46:35.748Z,2.39
2019-05-25T11:51:42.281Z,2.46
2019-05-25T11:56:49.442Z,2.25
2019-05-25T12:01:55.896Z,2.69
2019-05-25T12:07:04.757Z,2.25
2019-05-25T12:12:11.320Z,2.71
2019-05-25T12:17:17.627Z,2.14
2019-05-25T12:22:24.019Z,2.10
2019-05-25T12:27:30.886Z,2.04
2019-05-25T12:32:37.209Z,2.36
2019-05-25T12:37:43.520Z,2.46
2019-05-25T12:42:50.115Z,2.82
2019-05-25T12:47:56.742Z,6.18
2019-05-25T12:53:03.130Z,3.91
2019-05-25T12:58:10.520Z,2.52
2019-05-25T13:03:17.078Z,2.58
2019-05-25T13:08:23.492Z,2.59
2019-05-25T13:14:30.763Z,2.64
2019-05-25T13:23:37.319Z,2.37
2019-05-25T13:28:47.279Z,2.45
2019-05-25T13:33:54.050Z,2.71
2019-05-25T13:39:00.453Z,2.49
2019-05-25T13:44:06.870Z,3.36
2019-05-25T13:49:13.432Z,4.50
2019-05-25T13:54:20.061Z,3.64
2019-05-25T13:59:26.627Z,3.15
2019-05-25T14:04:33.095Z,2.48
2019-05-25T14:09:52.569Z,2.77
2019-05-25T14:14:51.947Z,2.70
2019-05-25T14:20:00.908Z,2.14
2019-05-25T14:25:08.500Z,2.68
2019-05-25T14:30:15.053Z,2.36
2019-05-25T14:35:22.248Z,2.68
2019-05-25T14:40:29.229Z,2.77
2019-05-25T14:45:36.149Z,3.80
2019-05-25T14:50:42.970Z,2.38
2019-05-25T14:55:49.343Z,2.47
2019-05-25T15:00:56.189Z,4.01
2019-05-25T15:06:02.426Z,2.64
2019-05-25T15:11:08.756Z,2.53
2019-05-25T15:16:15.170Z,1.99
2019-05-25T15:21:26.605Z,2.37
2019-05-25T15:26:49.796Z,6.47
2019-05-25T15:31:26.495Z,2.80
2019-05-25T15:36:35.000Z,2.92
2019-05-25T15:46:44.241Z,2.35
2019-05-25T15:51:50.660Z,2.17
2019-05-25T15:56:56.778Z,2.54
2019-05-25T16:02:02.929Z,2.40
2019-05-25T16:07:10.017Z,2.39
2019-05-25T16:12:17.848Z,2.50
2019-05-25T16:17:26.156Z,2.32
2019-05-25T16:22:32.596Z,2.53
2019-05-25T16:27:38.796Z,3.29
2019-05-25T16:33:11.087Z,2.26
2019-05-25T16:37:51.395Z,2.20
2019-05-25T16:42:57.856Z,2.69
2019-05-25T16:48:04.311Z,2.15
2019-05-25T16:53:10.516Z,2.03
2019-05-25T16:58:17.021Z,2.16
2019-05-25T17:03:36.275Z,2.11
2019-05-25T17:08:32.715Z,2.03
2019-05-25T17:13:39.489Z,2.53
2019-05-25T17:18:45.965Z,2.17
2019-05-25T17:23:52.260Z,2.83
2019-05-25T17:28:58.720Z,2.04
2019-05-25T17:34:05.043Z,1.95
2019-05-25T17:39:11.372Z,2.09
2019-05-25T17:44:18.100Z,2.24
2019-05-25T17:49:24.377Z,2.24
2019-05-25T17:54:30.706Z,2.67
2019-05-25T17:59:37.122Z,2.35
2019-05-25T18:04:43.365Z,2.38
2019-05-25T18:09:50.128Z,2.62
2019-05-25T18:14:56.523Z,2.45
2019-05-25T18:20:02.757Z,2.19
2019-05-25T18:25:09.016Z,1.97
2019-05-25T18:30:15.541Z,2.49
2019-05-25T18:35:21.771Z,1.98
2019-05-25T18:40:28.234Z,1.89
2019-05-25T18:45:34.537Z,1.76
2019-05-25T18:50:41.022Z,1.78
2019-05-25T18:55:47.490Z,2.10
2019-05-25T19:00:53.708Z,2.20
2019-05-25T19:06:00.052Z,2.23
2019-05-25T19:11:06.306Z,1.93
2019-05-25T19:16:12.589Z,2.03
2019-05-25T19:21:18.788Z,2.25
2019-05-25T19:26:24.945Z,2.23
2019-05-25T19:31:31.133Z,2.25
2019-05-25T19:36:37.385Z,2.28
2019-05-25T19:41:43.716Z,2.56
2019-05-25T19:46:49.906Z,2.23
2019-05-25T19:51:55.982Z,2.28
2019-05-25T19:57:02.147Z,2.53
2019-05-25T20:02:08.366Z,2.68
2019-05-25T20:07:14.664Z,2.38
2019-05-25T20:12:21.072Z,2.33
2019-05-25T20:17:27.277Z,2.42
2019-05-25T20:22:33.458Z,2.40
2019-05-25T20:27:39.673Z,2.52
2019-05-25T20:32:46.111Z,2.63
2019-05-25T20:37:52.232Z,2.70
2019-05-25T20:42:58.502Z,2.14
2019-05-25T20:48:04.614Z,2.35
2019-05-25T20:53:10.858Z,2.66
2019-05-25T20:58:16.908Z,2.35
2019-05-25T21:03:23.064Z,2.30
2019-05-25T21:08:29.238Z,1.91
2019-05-25T21:13:35.480Z,2.21
2019-05-25T21:18:41.631Z,2.03
2019-05-25T21:24:01.340Z,2.11
2019-05-25T21:28:57.802Z,2.04
2019-05-25T21:34:03.934Z,2.45
2019-05-25T21:39:10.055Z,2.37
2019-05-25T21:44:17.183Z,2.69
2019-05-25T21:49:23.459Z,2.66
2019-05-25T21:54:29.695Z,2.93
2019-05-25T21:59:36.030Z,2.59
2019-05-25T22:04:42.205Z,2.59
2019-05-25T22:09:48.695Z,2.99
2019-05-25T22:14:54.929Z,2.61
2019-05-25T22:20:01.149Z,2.83
2019-05-25T22:25:07.514Z,3.03
2019-05-25T22:30:13.712Z,3.12
2019-05-25T22:35:19.884Z,3.43
2019-05-25T22:40:26.088Z,3.48
2019-05-25T22:45:32.619Z,3.75
2019-05-25T22:50:38.876Z,4.02
2019-05-25T22:55:45.221Z,3.92
2019-05-25T23:00:51.786Z,3.80
2019-05-25T23:05:57.988Z,3.76
2019-05-25T23:11:04.124Z,4.19
2019-05-25T23:16:10.420Z,4.15
2019-05-25T23:21:16.601Z,3.76
2019-05-25T23:26:22.753Z,3.86
2019-05-25T23:31:29.162Z,4.12
2019-05-25T23:36:35.273Z,4.24
2019-05-25T23:41:41.766Z,4.43
2019-05-25T23:46:48.050Z,4.61
2019-05-25T23:51:54.431Z,4.93
2019-05-25T23:57:00.891Z,4.78
